Time;durP1;ratioP1;P1;durP2;ratioP2;P2;SDS_P1;SDS_P2;PMS_P1;PMS_P2;Temp;Humidity;BMP_temperature;BMP_pressure;BME280_temperature;BME280_humidity;BME280_pressure;Samples;Min_cycle;Max_cycle;Signal;HPM_P1;HPM_P2
2022/10/20 00:00:49;;;;;;;10.40;7.87;;;12.40;99.90;;;;;;4955506;28;20446;-67
2022/10/20 00:03:15;;;;;;;9.93;9.03;;;12.40;99.90;;;;;;4972346;28;20573;-68
2022/10/20 00:05:40;;;;;;;10.53;9.53;;;12.40;99.90;;;;;;4971457;28;20227;-68
2022/10/20 00:08:06;;;;;;;9.90;9.00;;;12.40;99.90;;;;;;4970068;28;20198;-68
2022/10/20 00:10:32;;;;;;;10.40;9.40;;;12.40;99.90;;;;;;4971211;28;20223;-68
2022/10/20 00:12:58;;;;;;;13.93;9.90;;;12.50;99.90;;;;;;4972814;28;20197;-68
2022/10/20 00:15:24;;;;;;;10.40;9.40;;;12.40;99.90;;;;;;4970095;28;20531;-68
2022/10/20 00:17:50;;;;;;;10.87;9.70;;;12.40;99.90;;;;;;4972339;28;20291;-67
2022/10/20 00:20:15;;;;;;;10.20;9.30;;;12.40;99.90;;;;;;4938941;28;20200;-68
2022/10/20 00:22:41;;;;;;;10.80;9.70;;;12.40;99.90;;;;;;4939177;28;20287;-68
2022/10/20 00:25:07;;;;;;;10.43;9.43;;;12.40;99.90;;;;;;4970966;28;20248;-68
2022/10/20 00:27:33;;;;;;;10.97;9.27;;;12.40;99.90;;;;;;5018315;28;20555;-68
2022/10/20 00:29:59;;;;;;;10.97;10.00;;;12.40;99.90;;;;;;5033003;28;20473;-68
2022/10/20 00:32:24;;;;;;;10.80;9.80;;;12.50;99.90;;;;;;5032423;28;20844;-68
2022/10/20 00:34:50;;;;;;;10.97;9.73;;;12.50;99.90;;;;;;5033195;28;20201;-68
2022/10/20 00:37:16;;;;;;;11.40;10.40;;;12.50;99.90;;;;;;5030456;28;20191;-68
2022/10/20 00:39:41;;;;;;;10.67;9.50;;;12.50;99.90;;;;;;5033232;28;20196;-70
2022/10/20 00:42:13;;;;;;;10.13;9.10;;;12.50;99.90;;;;;;5014297;28;20190;-69
2022/10/20 00:44:58;;;;;;;11.10;9.93;;;12.50;99.90;;;;;;5032248;28;20189;-68
2022/10/20 00:47:24;;;;;;;12.17;10.97;;;12.50;99.90;;;;;;5018054;28;20452;-68
2022/10/20 00:49:50;;;;;;;11.93;10.83;;;12.50;99.90;;;;;;5032550;28;20862;-68
2022/10/20 00:52:19;;;;;;;10.90;9.90;;;12.50;99.90;;;;;;5031856;28;20207;-68
2022/10/20 00:54:45;;;;;;;11.00;9.90;;;12.60;99.90;;;;;;5032492;28;20501;-69
2022/10/20 00:57:11;;;;;;;11.53;10.43;;;12.60;99.90;;;;;;4964006;28;20429;-68
2022/10/20 00:59:38;;;;;;;12.13;10.50;;;12.60;99.90;;;;;;5032190;28;20401;-68
2022/10/20 01:02:07;;;;;;;11.07;10.07;;;12.60;99.90;;;;;;5031196;28;20450;-73
2022/10/20 01:04:35;;;;;;;19.97;11.07;;;12.70;99.90;;;;;;5032820;28;20511;-68
2022/10/20 01:07:01;;;;;;;10.57;9.50;;;12.70;99.90;;;;;;5022427;28;20485;-67
2022/10/20 01:09:27;;;;;;;10.13;9.30;;;12.70;99.90;;;;;;5011464;28;20936;-68
2022/10/20 01:12:18;;;;;;;10.80;9.00;;;12.70;99.90;;;;;;5012782;28;20564;-68
2022/10/20 01:14:43;;;;;;;11.10;9.97;;;12.70;99.90;;;;;;4995626;28;20521;-70
2022/10/20 01:17:09;;;;;;;10.47;9.43;;;12.70;99.90;;;;;;5010908;28;20460;-68
2022/10/20 01:19:43;;;;;;;11.70;10.00;;;12.70;99.90;;;;;;5011710;28;20190;-68
2022/10/20 01:22:37;;;;;;;11.50;9.73;;;12.70;99.90;;;;;;5011483;28;20187;-68
2022/10/20 01:25:08;;;;;;;11.10;10.00;;;12.80;99.90;;;;;;5011795;28;20454;-68
2022/10/20 01:27:41;;;;;;;12.30;11.07;;;12.80;99.90;;;;;;5011777;28;20505;-68
2022/10/20 01:30:06;;;;;;;10.90;9.80;;;12.80;99.90;;;;;;5011386;28;20458;-74
2022/10/20 01:33:00;;;;;;;11.37;10.30;;;12.80;99.90;;;;;;5012325;28;20445;-68
2022/10/20 01:35:25;;;;;;;11.20;10.10;;;12.90;99.90;;;;;;5010007;28;20406;-68
2022/10/20 01:38:23;;;;;;;11.47;10.33;;;12.90;99.90;;;;;;5011092;28;21013;-67
2022/10/20 01:40:55;;;;;;;10.30;9.30;;;12.90;99.90;;;;;;4979842;28;20219;-68
2022/10/20 01:43:24;;;;;;;12.17;11.07;;;12.90;99.90;;;;;;5011421;28;20945;-68
2022/10/20 01:45:51;;;;;;;11.70;10.60;;;12.90;99.90;;;;;;5011318;28;20442;-68
2022/10/20 01:48:23;;;;;;;11.90;10.70;;;12.90;99.90;;;;;;5010950;28;20472;-68
2022/10/20 01:50:49;;;;;;;12.40;11.10;;;12.90;99.90;;;;;;5011196;28;20462;-68
2022/10/20 01:53:15;;;;;;;12.43;11.17;;;12.90;99.90;;;;;;5011257;28;20441;-68
2022/10/20 01:55:41;;;;;;;14.70;11.60;;;12.90;99.90;;;;;;5010964;28;20820;-68
2022/10/20 01:58:27;;;;;;;12.27;11.17;;;13.00;99.90;;;;;;5010747;28;20194;-73
2022/10/20 02:00:56;;;;;;;12.90;11.53;;;13.00;99.90;;;;;;5011155;28;20525;-71
2022/10/20 02:03:36;;;;;;;11.60;10.33;;;13.00;99.90;;;;;;4992092;28;20421;-68
2022/10/20 02:06:40;;;;;;;12.80;11.50;;;13.00;99.90;;;;;;5007259;28;20473;-68
2022/10/20 02:09:19;;;;;;;14.87;10.43;;;13.00;99.90;;;;;;5022652;28;20452;-74
2022/10/20 02:11:51;;;;;;;10.80;9.80;;;13.00;99.90;;;;;;5030544;28;20507;-68
2022/10/20 02:14:20;;;;;;;12.93;11.20;;;13.10;99.90;;;;;;5030834;28;20474;-68
2022/10/20 02:16:57;;;;;;;11.53;10.50;;;13.10;99.90;;;;;;5031392;28;20435;-68
2022/10/20 02:19:27;;;;;;;12.93;10.97;;;13.10;99.90;;;;;;5030625;28;20428;-68
2022/10/20 02:21:55;;;;;;;13.13;11.83;;;13.10;99.90;;;;;;5030272;28;20442;-67
2022/10/20 02:24:24;;;;;;;12.00;10.80;;;13.10;99.90;;;;;;5030040;28;20524;-68
2022/10/20 02:26:52;;;;;;;12.10;11.00;;;13.10;99.90;;;;;;5031126;28;20461;-68
2022/10/20 02:29:25;;;;;;;11.70;10.60;;;13.10;99.90;;;;;;5029924;28;20660;-68
2022/10/20 02:31:51;;;;;;;11.40;10.00;;;13.20;99.90;;;;;;5031839;28;20819;-68
2022/10/20 02:34:17;;;;;;;11.23;10.13;;;13.20;99.90;;;;;;5029363;28;20434;-68
2022/10/20 02:36:43;;;;;;;12.00;10.90;;;13.20;99.90;;;;;;5030426;28;20192;-68
2022/10/20 02:39:09;;;;;;;11.50;10.50;;;13.20;99.90;;;;;;5030144;28;20437;-74
2022/10/20 02:41:35;;;;;;;10.77;9.60;;;13.30;99.90;;;;;;5030018;28;20496;-70
2022/10/20 02:44:00;;;;;;;11.70;10.50;;;13.30;99.90;;;;;;5031435;28;20461;-68
2022/10/20 02:46:26;;;;;;;13.67;10.20;;;13.30;99.90;;;;;;5028274;28;20180;-68
2022/10/20 02:48:52;;;;;;;11.97;10.87;;;13.40;99.90;;;;;;5030444;28;20187;-68
2022/10/20 02:51:18;;;;;;;11.17;10.10;;;13.30;99.90;;;;;;5030135;28;20218;-68
2022/10/20 02:53:44;;;;;;;11.93;10.83;;;13.30;99.90;;;;;;5031224;28;20439;-68
2022/10/20 02:56:10;;;;;;;10.33;9.33;;;13.30;99.90;;;;;;5029992;28;20325;-73
2022/10/20 02:58:36;;;;;;;10.90;9.50;;;13.30;99.90;;;;;;5031038;28;20431;-68
2022/10/20 03:01:03;;;;;;;11.40;10.30;;;13.40;99.90;;;;;;5031218;28;20930;-68
2022/10/20 03:03:29;;;;;;;11.40;10.30;;;13.40;99.90;;;;;;4962550;28;20303;-68
2022/10/20 03:05:54;;;;;;;11.33;10.23;;;13.40;99.90;;;;;;5029921;28;20569;-68
2022/10/20 03:08:20;;;;;;;11.53;10.43;;;13.40;99.90;;;;;;5029621;28;20898;-68
2022/10/20 03:10:46;;;;;;;11.10;10.20;;;13.40;99.90;;;;;;5031109;28;20215;-68
2022/10/20 03:13:13;;;;;;;10.70;9.70;;;13.40;99.90;;;;;;5030371;28;20577;-74
2022/10/20 03:15:39;;;;;;;10.93;9.97;;;13.60;99.90;;;;;;5030038;28;20196;-68
2022/10/20 03:18:05;;;;;;;12.30;11.10;;;13.50;99.90;;;;;;5031858;28;20417;-68
2022/10/20 03:20:30;;;;;;;12.37;11.23;;;13.50;99.90;;;;;;5030447;28;20427;-68
2022/10/20 03:22:56;;;;;;;11.03;10.03;;;13.50;99.90;;;;;;5031109;28;20356;-68
2022/10/20 03:25:22;;;;;;;11.13;10.13;;;13.60;99.90;;;;;;5033281;28;20970;-68
2022/10/20 03:27:47;;;;;;;11.30;10.30;;;13.50;99.90;;;;;;5033938;28;20175;-68
2022/10/20 03:30:13;;;;;;;11.40;10.40;;;13.60;99.90;;;;;;5033687;28;20222;-73
2022/10/20 03:32:39;;;;;;;11.77;10.63;;;13.70;99.90;;;;;;5033508;28;20633;-68
2022/10/20 03:35:05;;;;;;;12.03;11.03;;;13.60;99.90;;;;;;5032829;28;20189;-68
2022/10/20 03:37:31;;;;;;;11.30;10.23;;;13.60;99.90;;;;;;5033989;28;21037;-68
2022/10/20 03:39:56;;;;;;;13.50;10.07;;;13.60;99.90;;;;;;5015352;28;20441;-68
2022/10/20 03:42:22;;;;;;;11.47;10.37;;;13.60;99.90;;;;;;5032648;28;20184;-68
2022/10/20 03:44:48;;;;;;;11.23;10.17;;;13.60;99.90;;;;;;5034030;28;20219;-69
2022/10/20 03:47:13;;;;;;;11.73;10.63;;;13.60;99.90;;;;;;5033513;28;20268;-74
2022/10/20 03:49:39;;;;;;;12.43;10.30;;;13.70;99.90;;;;;;5034172;28;20206;-68
2022/10/20 03:52:05;;;;;;;11.17;9.60;;;13.60;99.90;;;;;;5033758;28;20193;-68
2022/10/20 03:54:31;;;;;;;10.80;9.80;;;13.60;99.90;;;;;;5032027;28;20424;-68
2022/10/20 03:56:57;;;;;;;11.43;10.23;;;13.60;99.90;;;;;;5033834;28;20434;-68
2022/10/20 03:59:22;;;;;;;9.97;9.07;;;13.60;99.90;;;;;;5032583;28;20616;-68
2022/10/20 04:01:48;;;;;;;11.50;10.50;;;13.60;99.90;;;;;;5033050;28;20197;-68
2022/10/20 04:04:14;;;;;;;10.90;9.80;;;13.60;99.90;;;;;;5034034;28;20185;-72
2022/10/20 04:06:40;;;;;;;10.40;9.40;;;13.50;99.90;;;;;;5026018;28;20226;-73
2022/10/20 04:09:05;;;;;;;12.13;10.80;;;13.60;99.90;;;;;;5013037;28;21006;-70
2022/10/20 04:11:32;;;;;;;14.63;10.30;;;13.60;99.90;;;;;;5012340;28;20204;-69
2022/10/20 04:13:57;;;;;;;10.83;9.83;;;13.60;99.90;;;;;;4996757;28;20185;-72
2022/10/20 04:16:23;;;;;;;11.30;10.30;;;13.70;99.90;;;;;;5012010;28;20506;-67
2022/10/20 04:18:51;;;;;;;15.30;12.77;;;13.70;99.90;;;;;;5012669;28;20188;-68
2022/10/20 04:21:17;;;;;;;10.37;9.40;;;13.70;99.90;;;;;;5012605;28;20197;-76
2022/10/20 04:23:42;;;;;;;9.33;8.43;;;13.70;99.90;;;;;;4995971;28;20436;-69
2022/10/20 04:26:13;;;;;;;11.67;9.80;;;13.70;99.90;;;;;;5011646;28;20269;-69
2022/10/20 04:28:39;;;;;;;10.93;9.83;;;13.70;99.90;;;;;;5012661;28;20189;-70
2022/10/20 04:31:06;;;;;;;10.10;9.20;;;13.70;99.90;;;;;;5012385;28;20534;-69
2022/10/20 04:33:32;;;;;;;10.83;8.57;;;13.70;99.90;;;;;;5013012;28;20484;-69
2022/10/20 04:36:07;;;;;;;9.83;8.90;;;13.70;99.90;;;;;;5010537;28;20448;-69
2022/10/20 04:38:33;;;;;;;10.87;9.87;;;13.70;99.90;;;;;;4961472;28;20475;-69
2022/10/20 04:41:03;;;;;;;8.60;7.80;;;13.80;99.90;;;;;;5013796;28;20447;-69
2022/10/20 04:43:29;;;;;;;10.83;9.17;;;13.80;99.90;;;;;;5012976;28;20507;-69
2022/10/20 04:46:05;;;;;;;8.20;7.50;;;13.90;99.90;;;;;;5012729;28;20437;-69
2022/10/20 04:48:30;;;;;;;8.50;7.90;;;13.90;99.90;;;;;;5012944;28;20393;-69
2022/10/20 04:51:08;;;;;;;9.13;8.40;;;13.90;99.90;;;;;;5012901;28;20473;-70
2022/10/20 04:53:34;;;;;;;8.00;7.30;;;14.00;99.90;;;;;;5012896;28;20218;-71
2022/10/20 04:56:01;;;;;;;6.80;6.30;;;14.00;99.90;;;;;;4993560;28;20800;-71
2022/10/20 04:58:27;;;;;;;9.60;8.67;;;14.10;99.90;;;;;;5012532;28;20455;-71
2022/10/20 05:00:53;;;;;;;9.40;7.80;;;14.20;99.90;;;;;;5012459;28;20440;-69
2022/10/20 05:03:20;;;;;;;9.73;8.73;;;14.40;99.90;;;;;;5013323;28;20432;-78
2022/10/20 05:05:46;;;;;;;7.80;7.10;;;14.30;99.90;;;;;;5011253;28;20831;-70
2022/10/20 05:08:12;;;;;;;8.10;7.30;;;14.40;99.90;;;;;;5020901;28;20461;-70
2022/10/20 05:10:38;;;;;;;11.30;10.40;;;14.40;99.90;;;;;;4994742;28;21183;-70
2022/10/20 05:13:03;;;;;;;8.50;7.67;;;14.40;99.90;;;;;;5013907;28;20186;-70
2022/10/20 05:15:29;;;;;;;9.83;8.07;;;14.40;99.90;;;;;;5012593;28;20191;-70
2022/10/20 05:17:55;;;;;;;10.30;9.40;;;14.50;99.90;;;;;;5011611;28;20182;-70
2022/10/20 05:20:21;;;;;;;11.87;10.67;;;14.50;99.90;;;;;;4931937;29;20261;-70
2022/10/20 05:22:46;;;;;;;8.90;8.10;;;14.50;99.90;;;;;;4932444;29;20421;-70
2022/10/20 05:25:12;;;;;;;8.47;7.53;;;14.40;99.90;;;;;;4932413;29;20284;-70
2022/10/20 05:27:38;;;;;;;10.53;9.53;;;14.50;99.90;;;;;;4932395;29;20990;-70
2022/10/20 05:30:04;;;;;;;8.80;8.10;;;14.50;99.90;;;;;;4932610;29;20228;-70
2022/10/20 05:32:29;;;;;;;9.87;8.97;;;14.60;99.90;;;;;;4945002;29;20284;-70
2022/10/20 05:34:55;;;;;;;8.53;7.93;;;14.60;99.90;;;;;;4931996;29;20976;-70
2022/10/20 05:37:21;;;;;;;9.50;8.60;;;14.60;99.90;;;;;;4935829;29;20631;-79
2022/10/20 05:39:46;;;;;;;9.80;8.80;;;14.60;99.90;;;;;;4943570;29;20236;-70
2022/10/20 05:42:12;;;;;;;9.30;8.50;;;14.70;99.90;;;;;;4932819;29;20182;-70
2022/10/20 05:44:38;;;;;;;8.90;7.50;;;14.60;99.90;;;;;;4931967;29;20181;-70
2022/10/20 05:47:03;;;;;;;8.67;7.60;;;14.60;99.90;;;;;;4932533;29;20224;-70
2022/10/20 05:49:29;;;;;;;7.80;7.10;;;14.60;99.90;;;;;;4932137;29;20645;-70
2022/10/20 05:51:55;;;;;;;8.20;7.40;;;14.60;99.90;;;;;;4992293;28;20223;-70
2022/10/20 05:54:20;;;;;;;8.23;7.43;;;14.60;99.90;;;;;;5007435;28;20179;-78
2022/10/20 05:56:46;;;;;;;7.27;6.57;;;14.60;99.90;;;;;;4993981;28;20245;-70
2022/10/20 05:59:12;;;;;;;8.80;7.00;;;14.50;99.90;;;;;;5002891;28;20190;-70
2022/10/20 06:01:46;;;;;;;8.90;8.10;;;14.50;99.90;;;;;;4913235;29;21054;-70
2022/10/20 06:04:17;;;;;;;10.87;8.40;;;14.60;99.90;;;;;;4930305;29;20437;-73
2022/10/20 06:06:43;;;;;;;7.70;7.00;;;14.80;99.90;;;;;;4935392;28;21019;-72
2022/10/20 06:09:10;;;;;;;9.33;8.37;;;14.80;99.90;;;;;;4950532;28;20432;-68
2022/10/20 06:11:36;;;;;;;7.73;6.63;;;14.80;99.90;;;;;;4951201;29;20221;-68
2022/10/20 06:14:03;;;;;;;9.50;8.73;;;14.80;99.90;;;;;;4948224;28;20457;-66
2022/10/20 06:16:29;;;;;;;8.57;7.70;;;14.80;99.90;;;;;;4951360;29;20442;-66
2022/10/20 06:18:57;;;;;;;11.97;10.97;;;14.80;99.90;;;;;;4951996;29;20964;-67
2022/10/20 06:21:25;;;;;;;9.27;8.47;;;15.00;99.90;;;;;;4935587;29;20878;-68
2022/10/20 06:23:51;;;;;;;8.70;8.00;;;15.30;99.90;;;;;;4936021;29;20534;-69
2022/10/20 06:26:23;;;;;;;9.77;8.20;;;15.30;99.90;;;;;;4951574;29;20610;-68
2022/10/20 06:28:51;;;;;;;9.43;8.33;;;15.30;99.90;;;;;;4952149;29;20488;-68
2022/10/20 06:31:39;;;;;;;7.90;7.23;;;15.40;99.90;;;;;;4951533;29;20504;-66
2022/10/20 06:34:07;;;;;;;11.27;10.37;;;15.20;99.90;;;;;;5011223;28;20450;-68
2022/10/20 06:36:37;;;;;;;14.87;10.50;;;15.30;99.90;;;;;;4992076;28;20496;-65
2022/10/20 06:39:05;;;;;;;9.40;8.70;;;15.30;99.90;;;;;;4992918;28;20968;-65
2022/10/20 06:41:31;;;;;;;10.27;9.37;;;15.10;99.90;;;;;;5003857;28;20457;-65
2022/10/20 06:43:59;;;;;;;8.10;7.23;;;15.10;99.90;;;;;;5012521;28;20775;-66
2022/10/20 06:46:29;;;;;;;8.43;7.63;;;15.20;99.90;;;;;;5011317;28;20447;-66
2022/10/20 06:48:55;;;;;;;8.10;7.03;;;15.10;99.90;;;;;;4994934;28;20430;-66
2022/10/20 06:51:22;;;;;;;7.63;6.83;;;15.10;99.90;;;;;;5010862;28;20947;-67
2022/10/20 06:53:49;;;;;;;8.40;7.60;;;15.00;99.90;;;;;;4993718;28;20192;-66
2022/10/20 06:56:17;;;;;;;10.87;10.10;;;15.20;99.90;;;;;;4992167;28;20923;-66
2022/10/20 06:58:45;;;;;;;7.77;7.00;;;15.20;99.90;;;;;;5013518;28;20692;-66
2022/10/20 07:01:22;;;;;;;11.00;9.93;;;15.20;99.90;;;;;;5015819;28;20407;-66
2022/10/20 07:03:49;;;;;;;10.33;8.43;;;15.30;99.90;;;;;;5013953;28;20430;-66
2022/10/20 07:06:16;;;;;;;8.10;7.07;;;15.20;99.90;;;;;;5017446;28;20512;-67
2022/10/20 07:08:42;;;;;;;8.67;7.93;;;15.20;99.90;;;;;;5034640;28;20805;-66
2022/10/20 07:11:11;;;;;;;9.50;7.90;;;15.30;99.90;;;;;;5016785;28;20470;-67
2022/10/20 07:13:38;;;;;;;7.33;6.63;;;15.40;99.90;;;;;;5034831;28;20633;-68
2022/10/20 07:16:06;;;;;;;7.10;6.50;;;15.30;99.90;;;;;;5017414;28;20470;-67
2022/10/20 07:18:32;;;;;;;7.73;6.83;;;15.30;99.90;;;;;;5034992;28;20408;-67
2022/10/20 07:21:06;;;;;;;6.57;5.93;;;15.40;99.90;;;;;;5035908;28;20438;-66
2022/10/20 07:23:33;;;;;;;8.43;7.70;;;15.50;99.90;;;;;;5034955;28;20476;-68
2022/10/20 07:26:11;;;;;;;7.77;7.03;;;15.50;99.90;;;;;;5035437;28;20423;-67
2022/10/20 07:28:41;;;;;;;7.40;6.70;;;15.50;99.90;;;;;;5034443;28;20854;-68
2022/10/20 07:31:11;;;;;;;6.50;5.90;;;15.50;99.90;;;;;;5035320;28;20460;-67
2022/10/20 07:33:37;;;;;;;7.00;6.40;;;15.60;99.90;;;;;;5033729;28;20448;-67
2022/10/20 07:36:11;;;;;;;6.60;6.10;;;15.60;99.90;;;;;;5034377;28;20459;-67
2022/10/20 07:38:37;;;;;;;7.00;6.30;;;15.70;99.90;;;;;;5034559;28;20582;-68
2022/10/20 07:41:03;;;;;;;7.83;6.30;;;15.70;99.90;;;;;;4954697;29;20427;-67
2022/10/20 07:43:29;;;;;;;7.00;6.40;;;15.60;99.90;;;;;;4954174;29;20835;-68
2022/10/20 07:45:55;;;;;;;7.00;6.30;;;15.70;99.90;;;;;;4954594;29;20515;-68
2022/10/20 07:48:21;;;;;;;6.37;5.87;;;15.80;99.90;;;;;;4954595;29;20696;-68
2022/10/20 07:50:46;;;;;;;9.90;7.10;;;15.90;99.90;;;;;;4953155;29;20547;-67
2022/10/20 07:53:12;;;;;;;6.90;6.40;;;15.90;99.90;;;;;;4954349;29;20187;-68
2022/10/20 07:55:38;;;;;;;7.40;6.70;;;15.90;99.90;;;;;;4945222;29;20208;-67
2022/10/20 07:58:03;;;;;;;8.93;8.03;;;16.00;99.90;;;;;;4945395;29;20255;-68
2022/10/20 08:00:29;;;;;;;9.10;8.40;;;16.00;99.90;;;;;;4949908;29;20202;-68
2022/10/20 08:02:55;;;;;;;8.53;7.83;;;15.90;99.90;;;;;;4949317;28;20196;-68
2022/10/20 08:05:21;;;;;;;7.50;6.80;;;15.90;99.90;;;;;;4953036;28;20274;-67
2022/10/20 08:07:46;;;;;;;7.23;6.53;;;16.00;99.90;;;;;;4952850;29;20929;-68
2022/10/20 08:10:12;;;;;;;9.87;9.07;;;16.10;99.90;;;;;;4953717;28;20207;-68
2022/10/20 08:12:38;;;;;;;8.10;7.40;;;16.10;99.90;;;;;;5013740;28;20204;-67
2022/10/20 08:15:04;;;;;;;8.70;8.00;;;15.80;99.90;;;;;;5034623;28;20180;-68
2022/10/20 08:17:30;;;;;;;8.60;7.70;;;16.00;99.90;;;;;;5033610;28;20186;-68
2022/10/20 08:19:56;;;;;;;8.43;7.50;;;15.90;99.90;;;;;;5034152;28;20410;-67
2022/10/20 08:22:24;;;;;;;9.27;8.63;;;15.90;99.90;;;;;;5034130;28;20496;-67
2022/10/20 08:24:50;;;;;;;8.30;7.60;;;15.90;99.90;;;;;;5033727;28;20554;-68
2022/10/20 08:27:16;;;;;;;8.77;7.87;;;15.90;99.90;;;;;;5034199;28;20188;-68
2022/10/20 08:29:41;;;;;;;8.20;7.50;;;15.90;99.90;;;;;;5033971;28;20185;-68
2022/10/20 08:32:07;;;;;;;8.10;7.37;;;15.90;99.90;;;;;;5034116;28;20661;-68
2022/10/20 08:34:33;;;;;;;9.63;8.73;;;15.90;99.90;;;;;;5014975;28;20641;-68
2022/10/20 08:36:59;;;;;;;10.60;8.60;;;16.00;99.90;;;;;;5033229;28;20184;-68
2022/10/20 08:39:24;;;;;;;10.33;8.87;;;16.00;99.90;;;;;;5034186;28;20177;-68
2022/10/20 08:41:52;;;;;;;10.30;9.27;;;16.10;99.90;;;;;;5033450;28;20571;-68
2022/10/20 08:44:25;;;;;;;9.50;8.70;;;16.10;99.90;;;;;;5034006;28;20474;-68
2022/10/20 08:46:52;;;;;;;8.87;8.10;;;16.20;99.90;;;;;;5033375;28;20503;-67
2022/10/20 08:49:23;;;;;;;10.30;9.40;;;16.10;99.90;;;;;;5033904;28;20795;-68
2022/10/20 08:51:49;;;;;;;8.47;7.70;;;16.20;99.90;;;;;;5033283;28;20778;-68
2022/10/20 08:54:15;;;;;;;8.53;7.80;;;16.30;99.90;;;;;;5033878;28;20481;-68
2022/10/20 08:56:43;;;;;;;8.57;7.87;;;16.40;99.90;;;;;;5033126;28;20546;-68
2022/10/20 08:59:28;;;;;;;8.17;7.47;;;16.40;99.90;;;;;;5032388;28;20483;-68
2022/10/20 09:01:55;;;;;;;10.43;9.73;;;16.50;99.90;;;;;;5029596;28;20440;-68
2022/10/20 09:04:31;;;;;;;8.70;8.00;;;16.60;99.90;;;;;;5030782;28;20431;-67
2022/10/20 09:07:00;;;;;;;8.67;7.97;;;16.60;99.90;;;;;;5031420;28;20499;-67
2022/10/20 09:09:29;;;;;;;9.63;8.87;;;16.70;99.90;;;;;;5033657;28;20742;-67
2022/10/20 09:12:03;;;;;;;10.00;9.07;;;16.50;99.90;;;;;;5032799;28;20456;-67
2022/10/20 09:14:33;;;;;;;9.27;8.47;;;16.60;99.90;;;;;;5033390;28;20408;-67
2022/10/20 09:16:58;;;;;;;8.50;7.77;;;16.60;99.90;;;;;;5033061;28;20410;-68
2022/10/20 09:19:24;;;;;;;9.13;8.20;;;16.60;99.90;;;;;;5033370;28;20412;-67
2022/10/20 09:21:56;;;;;;;9.37;8.57;;;16.40;99.90;;;;;;5032062;28;20243;-67
2022/10/20 09:24:25;;;;;;;9.93;9.03;;;16.30;99.90;;;;;;5033236;28;20180;-68
2022/10/20 09:26:51;;;;;;;8.93;8.13;;;16.30;99.90;;;;;;5032590;28;20482;-68
2022/10/20 09:29:32;;;;;;;9.70;8.90;;;16.30;99.90;;;;;;5032292;28;20517;-68
2022/10/20 09:31:58;;;;;;;9.27;8.47;;;16.40;99.90;;;;;;5033130;28;20452;-68
2022/10/20 09:34:28;;;;;;;9.07;8.07;;;16.30;99.90;;;;;;5033114;28;20434;-67
2022/10/20 09:37:06;;;;;;;8.40;7.63;;;16.30;99.90;;;;;;5014789;28;20648;-68
2022/10/20 09:39:46;;;;;;;7.93;7.10;;;16.40;99.90;;;;;;5033123;28;20412;-68
2022/10/20 09:42:27;;;;;;;9.67;8.67;;;16.20;99.90;;;;;;5015486;28;20393;-68
2022/10/20 09:44:57;;;;;;;8.40;7.70;;;16.30;99.90;;;;;;5032184;28;20420;-67
2022/10/20 09:47:25;;;;;;;8.77;7.90;;;16.20;99.90;;;;;;5033058;28;20486;-68
2022/10/20 09:49:56;;;;;;;9.43;8.53;;;16.20;99.90;;;;;;5032279;28;20797;-68
2022/10/20 09:52:29;;;;;;;8.90;8.20;;;16.40;99.90;;;;;;5032792;28;20453;-68
2022/10/20 09:55:00;;;;;;;8.33;7.63;;;16.40;99.90;;;;;;5032213;28;20495;-68
2022/10/20 09:57:29;;;;;;;8.50;7.80;;;16.40;99.90;;;;;;5032909;28;20408;-68
2022/10/20 09:59:56;;;;;;;9.80;9.00;;;16.50;99.90;;;;;;5030141;28;20999;-67
2022/10/20 10:02:22;;;;;;;8.20;7.40;;;16.60;99.90;;;;;;5032646;28;20409;-68
2022/10/20 10:04:52;;;;;;;14.10;9.33;;;16.60;99.90;;;;;;5032332;28;20416;-67
2022/10/20 10:07:20;;;;;;;10.40;9.13;;;16.70;99.90;;;;;;5032282;28;20407;-68
2022/10/20 10:10:24;;;;;;;9.77;8.83;;;16.70;99.90;;;;;;5031968;28;20805;-68
2022/10/20 10:12:55;;;;;;;7.90;7.13;;;16.80;99.90;;;;;;5032048;28;20439;-68
2022/10/20 10:15:25;;;;;;;8.90;8.10;;;16.90;99.90;;;;;;5032692;28;20424;-68
2022/10/20 10:17:52;;;;;;;10.20;9.23;;;16.80;99.90;;;;;;5031889;28;20470;-68
2022/10/20 10:20:18;;;;;;;8.50;7.70;;;16.90;99.90;;;;;;5032144;28;20475;-68
2022/10/20 10:22:43;;;;;;;8.63;7.73;;;16.90;99.90;;;;;;5014138;28;20441;-68
2022/10/20 10:25:29;;;;;;;9.67;8.90;;;17.00;99.90;;;;;;4932926;29;20241;-67
2022/10/20 10:28:05;;;;;;;10.07;8.37;;;17.00;99.90;;;;;;4932293;29;21118;-68
2022/10/20 10:30:36;;;;;;;8.83;8.10;;;17.10;99.90;;;;;;4931471;29;20472;-68
2022/10/20 10:33:24;;;;;;;8.50;7.70;;;17.10;99.90;;;;;;4935652;29;20425;-68
2022/10/20 10:35:49;;;;;;;8.80;8.10;;;17.00;99.90;;;;;;4936128;29;20398;-68
2022/10/20 10:38:15;;;;;;;8.73;7.97;;;16.90;99.90;;;;;;4936783;29;20418;-68
2022/10/20 10:41:08;;;;;;;8.50;7.70;;;16.80;99.90;;;;;;4936089;29;20356;-68
2022/10/20 10:44:01;;;;;;;12.00;8.40;;;16.80;99.90;;;;;;4936828;29;20190;-68
2022/10/20 10:50:09;;;;;;;9.23;8.33;;;17.00;99.90;;;;;;4935533;29;20501;-68
2022/10/20 10:52:41;;;;;;;9.60;8.30;;;16.90;99.90;;;;;;4936471;29;20557;-68
2022/10/20 10:55:26;;;;;;;11.57;10.10;;;17.00;99.90;;;;;;4934569;29;20437;-68
2022/10/20 10:58:21;;;;;;;9.00;8.40;;;17.00;99.90;;;;;;4936011;29;20405;-68
2022/10/20 11:01:06;;;;;;;9.43;8.23;;;17.00;99.90;;;;;;4935803;29;20792;-68
2022/10/20 11:03:57;;;;;;;8.90;8.20;;;17.10;99.90;;;;;;5023596;28;20858;-68
2022/10/20 11:06:57;;;;;;;9.10;8.00;;;17.00;99.90;;;;;;5035227;28;20457;-68
2022/10/20 11:09:56;;;;;;;8.93;7.87;;;16.90;99.90;;;;;;5035477;28;20413;-68
2022/10/20 11:12:41;;;;;;;12.10;9.90;;;17.00;99.90;;;;;;5035752;28;20422;-68
2022/10/20 11:15:26;;;;;;;9.70;8.90;;;17.10;99.90;;;;;;5035547;28;20429;-67
2022/10/20 11:18:13;;;;;;;12.10;10.80;;;17.10;99.90;;;;;;5034998;28;20817;-68
2022/10/20 11:20:47;;;;;;;11.13;9.50;;;17.20;99.90;;;;;;5035044;28;20539;-68
2022/10/20 11:23:44;;;;;;;9.50;8.53;;;17.30;99.90;;;;;;5035705;28;20398;-67
2022/10/20 11:26:31;;;;;;;10.30;9.40;;;17.30;99.90;;;;;;5032760;28;20440;-68
2022/10/20 11:28:59;;;;;;;10.60;9.80;;;17.30;99.90;;;;;;5034602;28;20873;-68
2022/10/20 11:31:49;;;;;;;10.47;9.73;;;17.20;99.90;;;;;;5035352;28;20467;-68
2022/10/20 11:34:24;;;;;;;11.10;10.00;;;17.10;99.90;;;;;;5035518;28;20410;-68
2022/10/20 11:37:14;;;;;;;14.63;9.73;;;16.90;99.90;;;;;;5034761;28;20451;-68
2022/10/20 11:40:09;;;;;;;11.07;9.90;;;16.60;99.90;;;;;;5023679;28;20455;-69
2022/10/20 11:42:38;;;;;;;11.00;10.07;;;16.50;99.90;;;;;;5035274;28;20489;-68
2022/10/20 11:45:24;;;;;;;10.90;9.90;;;16.30;99.90;;;;;;5032226;28;20473;-68
2022/10/20 11:48:22;;;;;;;9.97;9.00;;;16.20;99.90;;;;;;5034308;28;20432;-68
2022/10/20 11:50:58;;;;;;;11.60;9.70;;;16.20;99.90;;;;;;5034365;28;20451;-67
2022/10/20 11:53:39;;;;;;;11.03;9.90;;;16.10;99.90;;;;;;5035183;28;20401;-67
2022/10/20 11:56:28;;;;;;;15.30;11.80;;;16.00;99.90;;;;;;5035080;28;20744;-67
2022/10/20 11:59:24;;;;;;;10.53;9.53;;;16.10;99.90;;;;;;5033782;28;20527;-67
2022/10/20 12:02:25;;;;;;;12.07;10.97;;;16.20;99.90;;;;;;5034314;28;20458;-67
2022/10/20 12:05:02;;;;;;;11.13;10.20;;;16.30;99.90;;;;;;4930789;28;20456;-67
2022/10/20 12:07:52;;;;;;;12.60;11.30;;;16.20;99.90;;;;;;5032797;28;20506;-67
2022/10/20 12:11:10;;;;;;;12.20;11.03;;;16.30;99.90;;;;;;5034696;28;20518;-67
2022/10/20 12:13:57;;;;;;;11.60;10.40;;;16.40;99.90;;;;;;5012712;28;20413;-67
2022/10/20 12:17:04;;;;;;;11.53;9.40;;;16.40;99.90;;;;;;5034318;28;20436;-67
2022/10/20 12:19:32;;;;;;;11.33;10.33;;;16.40;99.90;;;;;;4973438;28;20431;-67
2022/10/20 12:21:59;;;;;;;12.00;10.90;;;16.60;99.90;;;;;;5022501;28;20448;-68
2022/10/20 12:24:50;;;;;;;10.73;9.83;;;16.70;99.90;;;;;;5034424;28;20428;-67
2022/10/20 12:27:23;;;;;;;12.40;11.27;;;16.80;99.90;;;;;;5032263;28;20504;-67
2022/10/20 12:30:00;;;;;;;12.67;11.37;;;16.80;99.90;;;;;;5033372;28;20751;-68
2022/10/20 12:32:36;;;;;;;10.37;9.47;;;16.90;99.90;;;;;;5033903;28;20920;-67
2022/10/20 12:35:21;;;;;;;11.07;10.07;;;16.90;99.90;;;;;;5032462;28;20413;-67
2022/10/20 12:38:01;;;;;;;14.80;10.53;;;17.00;99.90;;;;;;5033758;28;20508;-68
2022/10/20 12:40:31;;;;;;;11.60;10.60;;;17.10;99.90;;;;;;5034485;28;20409;-67
2022/10/20 12:42:57;;;;;;;14.13;12.07;;;17.10;99.90;;;;;;5033452;28;20423;-67
2022/10/20 12:45:38;;;;;;;11.73;10.20;;;16.90;99.90;;;;;;5031855;28;20452;-67
2022/10/20 12:48:06;;;;;;;12.70;11.50;;;16.80;99.90;;;;;;5033406;28;20413;-67
2022/10/20 12:50:45;;;;;;;10.00;8.80;;;16.90;99.90;;;;;;5016221;28;20465;-67
2022/10/20 12:53:31;;;;;;;14.40;13.27;;;17.00;99.90;;;;;;5034180;28;20467;-67
2022/10/20 12:56:09;;;;;;;14.63;10.83;;;16.90;99.90;;;;;;5031928;28;20425;-67
2022/10/20 12:59:17;;;;;;;13.87;12.80;;;16.90;99.90;;;;;;5033709;28;20413;-67
2022/10/20 13:02:07;;;;;;;10.70;9.70;;;16.90;99.90;;;;;;5033660;28;20412;-67